Maersk Drummond — A8JF3 — position and weather

sailwx.info

Track history (hours):
 
Tides and Currents Weather Stations Pressure Air Temp Water Temp Dewpoint Dewpoint Depression Visibility Wind Speed Wind Dir Waves Ship Positions

Maersk Drummond

Last reported at 2018-Feb-19 05:57 UTC. Time now 2018-Feb-21 13:33 UTC.
Position N 34°28' E 138°53'.

Length 294 m; draft 12 m.

Type: Ship (hazmat cat A). MMSI: 636091082.

Date/timePositionNaut miles runAvg speedWind from/ knotsBaromVisibWave heightAir tempDewpointWater temp
2018-Feb-19 05:57N 34°28' E 138°53'511.9
2018-Feb-19 05:30N 34°31' E 138°59'712.5
2018-Feb-19 04:55N 34°37' E 139°04'2812.1
2018-Feb-19 02:37N 34°56' E 139°28'312.7
2018-Feb-19 02:24N 34°58' E 139°31'512.9
2018-Feb-19 01:59N 35°01' E 139°37'612.6
2018-Feb-19 01:30N 35°05' E 139°42'612.5
2018-Feb-19 01:00N 35°10' E 139°45'611.6
2018-Feb-19 00:30N 35°16' E 139°46'612.8
2018-Feb-19 00:00N 35°22' E 139°42'3 6.1
2018-Feb-18 23:28N 35°25' E 139°42'0 0.2
2018-Feb-18 22:58N 35°25' E 139°42'0 0.2
2018-Feb-18 22:28N 35°25' E 139°42'0 0.0
2018-Feb-18 21:58N 35°25' E 139°42'0 0.1
2018-Feb-18 21:28N 35°25' E 139°42'0 0.0
2018-Feb-18 20:58N 35°25' E 139°42'0 0.3
2018-Feb-18 20:28N 35°25' E 139°42'0 0.2
2018-Feb-18 20:01N 35°25' E 139°42'2 3.6
2018-Feb-18 19:30N 35°23' E 139°41'1 1.2
2018-Feb-18 19:00N 35°24' E 139°41'0 0.0
2018-Feb-18 18:30N 35°24' E 139°41'0 0.0
2018-Feb-18 17:58N 35°24' E 139°41'0 0.0
2018-Feb-18 17:28N 35°24' E 139°41'0 0.0
2018-Feb-18 16:58N 35°24' E 139°41'0 0.0
2018-Feb-18 16:28N 35°24' E 139°41'0 0.0
2018-Feb-18 15:58N 35°24' E 139°41'0 0.0
2018-Feb-18 15:28N 35°24' E 139°41'0 0.0
2018-Feb-18 14:58N 35°24' E 139°41'0 0.0
2018-Feb-18 14:28N 35°24' E 139°41'0 0.0
2018-Feb-18 13:58N 35°24' E 139°41'0 0.0
2018-Feb-18 13:28N 35°24' E 139°41'0 0.0
2018-Feb-18 12:58N 35°24' E 139°41'0 0.0
2018-Feb-18 12:28N 35°24' E 139°41'0 0.0
2018-Feb-18 11:58N 35°24' E 139°41'0 0.0
2018-Feb-18 11:28N 35°24' E 139°41'0 0.0
2018-Feb-18 10:58N 35°24' E 139°41'0 0.0
2018-Feb-18 10:28N 35°24' E 139°41'0 0.0
2018-Feb-18 09:58N 35°24' E 139°41'0 0.1
2018-Feb-18 09:30N 35°24' E 139°41'1 1.6
2018-Feb-18 09:00N 35°23' E 139°41'3 6.4
2018-Feb-18 08:30N 35°21' E 139°43'611.1
2018-Feb-18 08:00N 35°16' E 139°47'611.6
2018-Feb-18 07:30N 35°10' E 139°47'4 8.7
2018-Feb-18 07:00N 35°06' E 139°46'611.5
2018-Feb-18 06:30N 35°00' E 139°43'611.0
2018-Feb-18 06:00N 34°55' E 139°43'1715.8
2018-Feb-18 04:56N 34°53' E 140°04'  
Track history (hours):
 
Tides and Currents Weather Stations Pressure Air Temp Water Temp Dewpoint Dewpoint Depression Visibility Wind Speed Wind Dir Waves Ship Positions

Maersk Drummond

Last reported at 2018-Feb-19 05:57 UTC. Time now 2018-Feb-21 13:33 UTC.
Position N 34°28' E 138°53'.

Length 294 m; draft 12 m.

Type: Ship (hazmat cat A). MMSI: 636091082.

Date/timePositionNaut miles runAvg speedWind from/ knotsBaromVisibWave heightAir tempDewpointWater temp
2018-Feb-19 05:57N 34°28' E 138°53'511.9
2018-Feb-19 05:30N 34°31' E 138°59'712.5
2018-Feb-19 04:55N 34°37' E 139°04'2812.1
2018-Feb-19 02:37N 34°56' E 139°28'312.7
2018-Feb-19 02:24N 34°58' E 139°31'512.9
2018-Feb-19 01:59N 35°01' E 139°37'612.6
2018-Feb-19 01:30N 35°05' E 139°42'612.5
2018-Feb-19 01:00N 35°10' E 139°45'611.6
2018-Feb-19 00:30N 35°16' E 139°46'612.8
2018-Feb-19 00:00N 35°22' E 139°42'3 6.1
2018-Feb-18 23:28N 35°25' E 139°42'0 0.2
2018-Feb-18 22:58N 35°25' E 139°42'0 0.2
2018-Feb-18 22:28N 35°25' E 139°42'0 0.0
2018-Feb-18 21:58N 35°25' E 139°42'0 0.1
2018-Feb-18 21:28N 35°25' E 139°42'0 0.0
2018-Feb-18 20:58N 35°25' E 139°42'0 0.3
2018-Feb-18 20:28N 35°25' E 139°42'0 0.2
2018-Feb-18 20:01N 35°25' E 139°42'2 3.6
2018-Feb-18 19:30N 35°23' E 139°41'1 1.2
2018-Feb-18 19:00N 35°24' E 139°41'0 0.0
2018-Feb-18 18:30N 35°24' E 139°41'0 0.0
2018-Feb-18 17:58N 35°24' E 139°41'0 0.0
2018-Feb-18 17:28N 35°24' E 139°41'0 0.0
2018-Feb-18 16:58N 35°24' E 139°41'0 0.0
2018-Feb-18 16:28N 35°24' E 139°41'0 0.0
2018-Feb-18 15:58N 35°24' E 139°41'0 0.0
2018-Feb-18 15:28N 35°24' E 139°41'0 0.0
2018-Feb-18 14:58N 35°24' E 139°41'0 0.0
2018-Feb-18 14:28N 35°24' E 139°41'0 0.0
2018-Feb-18 13:58N 35°24' E 139°41'0 0.0
2018-Feb-18 13:28N 35°24' E 139°41'0 0.0
2018-Feb-18 12:58N 35°24' E 139°41'0 0.0
2018-Feb-18 12:28N 35°24' E 139°41'0 0.0
2018-Feb-18 11:58N 35°24' E 139°41'0 0.0
2018-Feb-18 11:28N 35°24' E 139°41'0 0.0
2018-Feb-18 10:58N 35°24' E 139°41'0 0.0
2018-Feb-18 10:28N 35°24' E 139°41'0 0.0
2018-Feb-18 09:58N 35°24' E 139°41'0 0.1
2018-Feb-18 09:30N 35°24' E 139°41'1 1.6
2018-Feb-18 09:00N 35°23' E 139°41'3 6.4
2018-Feb-18 08:30N 35°21' E 139°43'611.1
2018-Feb-18 08:00N 35°16' E 139°47'611.6
2018-Feb-18 07:30N 35°10' E 139°47'4 8.7
2018-Feb-18 07:00N 35°06' E 139°46'611.5
2018-Feb-18 06:30N 35°00' E 139°43'611.0
2018-Feb-18 06:00N 34°55' E 139°43'1715.8
2018-Feb-18 04:56N 34°53' E 140°04'  

Dump ship's entire track history